Yeagertown, PA

5:53 AM EST on January 28, 2015 (GMT -0500)
South Side | Change Station
CLOSE
Current Station
Personal Weather Station
Location: Lewistown, PA
Elevation: 486 ft
Nearby Weather Stations

Elev 486 ft 40.59 °N, 77.57 °W | Updated 8 seconds ago

Clear
Clear
15.9 °F
Feels Like 10 °F
N
3.8
Wind Variable Wind from SW
Gusts 8.3 mph

Today
High -- | Low -- °F
--% Chance of Precip.
Yesterday
High -- | Low -- °F
Precip. -- in
7:23 AM 5:22 PM
Waxing Gibbous, 63% visible
Pressure 30.11 in
Visibility 10.0 miles
Clouds Scattered Clouds 11000 ft
Windchill 10 °F
Dew Point 4 °F
Humidity 60%
Rainfall 0.00 in
Snow Depth Not available.
UV 0 out of 12
Pollen .10 out of 12
Air Quality Not available.
Flu Activity Not available.
METAR KUNV 281035Z AUTO 22005KT 10SM SCT110 M12/M16 A3011 RMK AO2 T11251160

More Conditions Fewer Conditions

Pressure 30.11 in
Visibility 10.0 miles
Clouds Scattered Clouds 11000 ft
Windchill 10 °F
Dew Point 4 °F
Humidity 60%
Rainfall 0.00 in
Snow Depth Not available.
UV 0 out of 12
Pollen .10 out of 12
Air Quality Not available.
Flu Activity Not available.
METAR KUNV 281035Z AUTO 22005KT 10SM SCT110 M12/M16 A3011 RMK AO2 T11251160

More Conditions Fewer Conditions

10-Day Weather Forecast

Almanac

Astronomy

Jan. 28, 2015 Rise Set
Actual Time
Civil Twilight
Nautical Twilight
Astronomical Twilight
Moon
Length of Visible Light
Length of Day
Tomorrow will be .
, % of the Moon is Illuminated

Today's Extremes

State Highs State Lows

Community

WunderPhotos

Upload Photos

1,791,121 photos uploaded!

WunderBlogs® & News

Nearby

Air Quality

  Air Quality AQ Index Pollutant
Not available.

Snow Depth

Station Depth Elevation

Earthquake Activity

City Distance Mag. Time & Date
Minimum magnitude displayed is 2.5.

Coastal Water Temperatures

Place Temperature

Nearby Weather Stations